sensor_id;sensor_type;location;lat;lon;timestamp;P1;durP1;ratioP1;P2;durP2;ratioP2
53269;SDS011;39159;45.634;9.420;2023-12-29T00:00:25;43.80;;;26.52;;
53269;SDS011;39159;45.634;9.420;2023-12-29T00:02:51;41.50;;;25.10;;
53269;SDS011;39159;45.634;9.420;2023-12-29T00:05:16;41.08;;;25.75;;
53269;SDS011;39159;45.634;9.420;2023-12-29T00:07:42;40.92;;;26.60;;
53269;SDS011;39159;45.634;9.420;2023-12-29T00:10:08;38.70;;;25.88;;
53269;SDS011;39159;45.634;9.420;2023-12-29T00:12:33;40.13;;;25.63;;
53269;SDS011;39159;45.634;9.420;2023-12-29T00:14:58;35.45;;;24.35;;
53269;SDS011;39159;45.634;9.420;2023-12-29T00:17:24;41.33;;;26.27;;
53269;SDS011;39159;45.634;9.420;2023-12-29T00:19:49;39.00;;;24.27;;
53269;SDS011;39159;45.634;9.420;2023-12-29T00:22:15;42.30;;;27.90;;
53269;SDS011;39159;45.634;9.420;2023-12-29T00:24:40;46.58;;;27.35;;
53269;SDS011;39159;45.634;9.420;2023-12-29T00:27:05;39.28;;;26.30;;
53269;SDS011;39159;45.634;9.420;2023-12-29T00:29:31;40.20;;;26.67;;
53269;SDS011;39159;45.634;9.420;2023-12-29T00:31:58;48.38;;;29.45;;
53269;SDS011;39159;45.634;9.420;2023-12-29T00:34:25;46.65;;;28.98;;
53269;SDS011;39159;45.634;9.420;2023-12-29T00:36:51;44.95;;;27.48;;
53269;SDS011;39159;45.634;9.420;2023-12-29T00:39:16;48.58;;;30.60;;
53269;SDS011;39159;45.634;9.420;2023-12-29T00:41:41;49.63;;;31.40;;
53269;SDS011;39159;45.634;9.420;2023-12-29T00:44:07;51.97;;;31.25;;
53269;SDS011;39159;45.634;9.420;2023-12-29T00:46:33;50.97;;;32.53;;
53269;SDS011;39159;45.634;9.420;2023-12-29T00:48:58;49.47;;;30.33;;
53269;SDS011;39159;45.634;9.420;2023-12-29T00:51:24;47.50;;;31.00;;
53269;SDS011;39159;45.634;9.420;2023-12-29T00:53:49;46.17;;;30.45;;
53269;SDS011;39159;45.634;9.420;2023-12-29T00:56:14;46.58;;;30.63;;
53269;SDS011;39159;45.634;9.420;2023-12-29T00:58:40;48.90;;;30.13;;
53269;SDS011;39159;45.634;9.420;2023-12-29T01:01:06;45.65;;;29.17;;
53269;SDS011;39159;45.634;9.420;2023-12-29T01:03:33;43.60;;;29.17;;
53269;SDS011;39159;45.634;9.420;2023-12-29T01:05:59;43.13;;;28.23;;
53269;SDS011;39159;45.634;9.420;2023-12-29T01:08:24;44.70;;;29.00;;
53269;SDS011;39159;45.634;9.420;2023-12-29T01:10:50;41.95;;;26.98;;
53269;SDS011;39159;45.634;9.420;2023-12-29T01:13:15;46.40;;;29.25;;
53269;SDS011;39159;45.634;9.420;2023-12-29T01:15:40;40.42;;;28.10;;
53269;SDS011;39159;45.634;9.420;2023-12-29T01:18:09;38.92;;;26.33;;
53269;SDS011;39159;45.634;9.420;2023-12-29T01:20:35;45.80;;;28.00;;
53269;SDS011;39159;45.634;9.420;2023-12-29T01:23:00;45.42;;;27.02;;
53269;SDS011;39159;45.634;9.420;2023-12-29T01:25:26;45.35;;;29.08;;
53269;SDS011;39159;45.634;9.420;2023-12-29T01:27:51;47.33;;;28.25;;
53269;SDS011;39159;45.634;9.420;2023-12-29T01:30:16;45.45;;;29.13;;
53269;SDS011;39159;45.634;9.420;2023-12-29T01:32:42;47.85;;;29.42;;
53269;SDS011;39159;45.634;9.420;2023-12-29T01:35:07;42.05;;;27.83;;
53269;SDS011;39159;45.634;9.420;2023-12-29T01:37:33;42.50;;;28.17;;
53269;SDS011;39159;45.634;9.420;2023-12-29T01:39:58;41.00;;;27.35;;
53269;SDS011;39159;45.634;9.420;2023-12-29T01:42:24;44.15;;;28.52;;
53269;SDS011;39159;45.634;9.420;2023-12-29T01:44:49;39.78;;;27.42;;
53269;SDS011;39159;45.634;9.420;2023-12-29T01:47:19;42.33;;;27.48;;
53269;SDS011;39159;45.634;9.420;2023-12-29T01:49:45;43.88;;;27.50;;
53269;SDS011;39159;45.634;9.420;2023-12-29T01:52:13;43.55;;;27.80;;
53269;SDS011;39159;45.634;9.420;2023-12-29T01:54:40;45.30;;;27.05;;
53269;SDS011;39159;45.634;9.420;2023-12-29T01:57:07;41.53;;;27.45;;
53269;SDS011;39159;45.634;9.420;2023-12-29T01:59:33;43.58;;;27.98;;
53269;SDS011;39159;45.634;9.420;2023-12-29T02:02:00;39.00;;;26.58;;
53269;SDS011;39159;45.634;9.420;2023-12-29T02:04:27;41.95;;;26.30;;
53269;SDS011;39159;45.634;9.420;2023-12-29T02:06:53;46.28;;;27.08;;
53269;SDS011;39159;45.634;9.420;2023-12-29T02:09:19;40.65;;;25.85;;
53269;SDS011;39159;45.634;9.420;2023-12-29T02:11:45;41.85;;;25.73;;
53269;SDS011;39159;45.634;9.420;2023-12-29T02:14:11;34.75;;;24.92;;
53269;SDS011;39159;45.634;9.420;2023-12-29T02:22:11;35.70;;;23.92;;
53269;SDS011;39159;45.634;9.420;2023-12-29T02:24:37;35.20;;;23.85;;
53269;SDS011;39159;45.634;9.420;2023-12-29T02:30:08;34.78;;;24.33;;
53269;SDS011;39159;45.634;9.420;2023-12-29T02:32:37;35.50;;;24.25;;
53269;SDS011;39159;45.634;9.420;2023-12-29T02:35:06;36.03;;;23.38;;
53269;SDS011;39159;45.634;9.420;2023-12-29T02:37:35;35.28;;;24.50;;
53269;SDS011;39159;45.634;9.420;2023-12-29T02:40:02;43.28;;;26.17;;
53269;SDS011;39159;45.634;9.420;2023-12-29T02:42:27;40.33;;;24.05;;
53269;SDS011;39159;45.634;9.420;2023-12-29T02:44:53;37.75;;;25.00;;
53269;SDS011;39159;45.634;9.420;2023-12-29T02:47:18;36.97;;;23.75;;
53269;SDS011;39159;45.634;9.420;2023-12-29T02:49:44;38.20;;;24.42;;
53269;SDS011;39159;45.634;9.420;2023-12-29T02:52:09;45.55;;;25.65;;
53269;SDS011;39159;45.634;9.420;2023-12-29T02:54:35;40.08;;;25.42;;
53269;SDS011;39159;45.634;9.420;2023-12-29T02:57:00;41.72;;;26.65;;
53269;SDS011;39159;45.634;9.420;2023-12-29T02:59:26;42.08;;;25.63;;
53269;SDS011;39159;45.634;9.420;2023-12-29T03:01:51;39.75;;;25.42;;
53269;SDS011;39159;45.634;9.420;2023-12-29T03:04:17;36.80;;;23.73;;
53269;SDS011;39159;45.634;9.420;2023-12-29T03:06:42;40.50;;;25.50;;
53269;SDS011;39159;45.634;9.420;2023-12-29T03:09:07;38.00;;;23.33;;
53269;SDS011;39159;45.634;9.420;2023-12-29T03:11:33;38.20;;;24.98;;
53269;SDS011;39159;45.634;9.420;2023-12-29T03:13:58;40.08;;;25.65;;
53269;SDS011;39159;45.634;9.420;2023-12-29T03:16:24;33.63;;;23.13;;
53269;SDS011;39159;45.634;9.420;2023-12-29T03:18:49;38.33;;;23.98;;
53269;SDS011;39159;45.634;9.420;2023-12-29T03:21:14;36.28;;;24.02;;
53269;SDS011;39159;45.634;9.420;2023-12-29T03:23:40;36.30;;;23.05;;
53269;SDS011;39159;45.634;9.420;2023-12-29T03:26:05;36.95;;;24.10;;
53269;SDS011;39159;45.634;9.420;2023-12-29T03:28:30;35.97;;;23.25;;
53269;SDS011;39159;45.634;9.420;2023-12-29T03:30:56;34.33;;;23.02;;
53269;SDS011;39159;45.634;9.420;2023-12-29T03:33:21;47.58;;;26.35;;
53269;SDS011;39159;45.634;9.420;2023-12-29T03:35:47;38.75;;;24.38;;
53269;SDS011;39159;45.634;9.420;2023-12-29T03:38:13;40.83;;;25.75;;
53269;SDS011;39159;45.634;9.420;2023-12-29T03:40:39;38.13;;;24.42;;
53269;SDS011;39159;45.634;9.420;2023-12-29T03:43:05;41.20;;;24.77;;
53269;SDS011;39159;45.634;9.420;2023-12-29T03:45:30;42.30;;;26.00;;
53269;SDS011;39159;45.634;9.420;2023-12-29T03:47:55;44.55;;;25.20;;
53269;SDS011;39159;45.634;9.420;2023-12-29T03:50:21;38.63;;;24.58;;
53269;SDS011;39159;45.634;9.420;2023-12-29T03:52:46;36.47;;;24.58;;
53269;SDS011;39159;45.634;9.420;2023-12-29T03:55:12;39.33;;;24.10;;
53269;SDS011;39159;45.634;9.420;2023-12-29T03:57:38;37.20;;;23.85;;
53269;SDS011;39159;45.634;9.420;2023-12-29T04:00:03;40.38;;;24.85;;
53269;SDS011;39159;45.634;9.420;2023-12-29T04:02:31;44.80;;;25.77;;
53269;SDS011;39159;45.634;9.420;2023-12-29T04:04:56;39.05;;;25.10;;
53269;SDS011;39159;45.634;9.420;2023-12-29T04:07:24;37.00;;;25.70;;
53269;SDS011;39159;45.634;9.420;2023-12-29T04:09:49;40.72;;;24.20;;
53269;SDS011;39159;45.634;9.420;2023-12-29T04:12:15;39.20;;;25.13;;
53269;SDS011;39159;45.634;9.420;2023-12-29T04:14:40;38.63;;;23.73;;
53269;SDS011;39159;45.634;9.420;2023-12-29T04:17:05;38.17;;;23.75;;
53269;SDS011;39159;45.634;9.420;2023-12-29T04:19:38;34.83;;;22.40;;
53269;SDS011;39159;45.634;9.420;2023-12-29T04:22:04;39.90;;;24.75;;
53269;SDS011;39159;45.634;9.420;2023-12-29T04:24:30;35.75;;;22.95;;
53269;SDS011;39159;45.634;9.420;2023-12-29T04:26:55;34.67;;;23.33;;
53269;SDS011;39159;45.634;9.420;2023-12-29T04:29:20;35.47;;;23.33;;
53269;SDS011;39159;45.634;9.420;2023-12-29T04:31:46;34.22;;;23.30;;
53269;SDS011;39159;45.634;9.420;2023-12-29T04:34:11;37.65;;;24.55;;
53269;SDS011;39159;45.634;9.420;2023-12-29T04:36:37;36.35;;;21.40;;
53269;SDS011;39159;45.634;9.420;2023-12-29T04:39:02;34.50;;;22.17;;
53269;SDS011;39159;45.634;9.420;2023-12-29T04:41:27;34.10;;;22.38;;
53269;SDS011;39159;45.634;9.420;2023-12-29T04:43:53;32.38;;;22.17;;
53269;SDS011;39159;45.634;9.420;2023-12-29T04:46:18;37.20;;;22.85;;
53269;SDS011;39159;45.634;9.420;2023-12-29T04:48:43;35.10;;;23.30;;
53269;SDS011;39159;45.634;9.420;2023-12-29T04:51:09;36.10;;;23.10;;
53269;SDS011;39159;45.634;9.420;2023-12-29T04:53:34;33.03;;;22.17;;
53269;SDS011;39159;45.634;9.420;2023-12-29T04:56:00;34.33;;;22.67;;
53269;SDS011;39159;45.634;9.420;2023-12-29T04:58:25;33.58;;;21.48;;
53269;SDS011;39159;45.634;9.420;2023-12-29T05:00:50;32.10;;;21.52;;
53269;SDS011;39159;45.634;9.420;2023-12-29T05:03:16;32.05;;;21.10;;
53269;SDS011;39159;45.634;9.420;2023-12-29T05:05:41;33.83;;;22.48;;
53269;SDS011;39159;45.634;9.420;2023-12-29T05:08:07;31.40;;;20.85;;
53269;SDS011;39159;45.634;9.420;2023-12-29T05:10:32;35.47;;;21.95;;
53269;SDS011;39159;45.634;9.420;2023-12-29T05:12:59;38.20;;;22.77;;
53269;SDS011;39159;45.634;9.420;2023-12-29T05:15:25;29.90;;;20.65;;
53269;SDS011;39159;45.634;9.420;2023-12-29T05:17:50;32.97;;;21.15;;
53269;SDS011;39159;45.634;9.420;2023-12-29T05:20:15;34.25;;;21.45;;
53269;SDS011;39159;45.634;9.420;2023-12-29T05:22:41;28.75;;;19.48;;
53269;SDS011;39159;45.634;9.420;2023-12-29T05:25:06;31.88;;;20.30;;
53269;SDS011;39159;45.634;9.420;2023-12-29T05:27:32;28.92;;;19.10;;
53269;SDS011;39159;45.634;9.420;2023-12-29T05:29:57;37.80;;;21.85;;
53269;SDS011;39159;45.634;9.420;2023-12-29T05:32:23;35.92;;;21.83;;
53269;SDS011;39159;45.634;9.420;2023-12-29T05:34:48;31.65;;;20.98;;
53269;SDS011;39159;45.634;9.420;2023-12-29T05:37:13;31.70;;;21.20;;
53269;SDS011;39159;45.634;9.420;2023-12-29T05:39:41;27.85;;;20.98;;
53269;SDS011;39159;45.634;9.420;2023-12-29T05:42:07;36.72;;;22.88;;
53269;SDS011;39159;45.634;9.420;2023-12-29T05:44:35;37.53;;;23.25;;
53269;SDS011;39159;45.634;9.420;2023-12-29T05:47:01;35.25;;;22.17;;
53269;SDS011;39159;45.634;9.420;2023-12-29T05:49:26;34.05;;;22.55;;
53269;SDS011;39159;45.634;9.420;2023-12-29T05:51:52;34.03;;;23.38;;
53269;SDS011;39159;45.634;9.420;2023-12-29T05:54:17;34.25;;;22.83;;
53269;SDS011;39159;45.634;9.420;2023-12-29T05:56:43;36.95;;;22.63;;
53269;SDS011;39159;45.634;9.420;2023-12-29T05:59:08;37.45;;;23.67;;
53269;SDS011;39159;45.634;9.420;2023-12-29T06:01:34;36.72;;;23.30;;
53269;SDS011;39159;45.634;9.420;2023-12-29T06:03:59;33.92;;;23.83;;
53269;SDS011;39159;45.634;9.420;2023-12-29T06:06:25;39.53;;;23.33;;
53269;SDS011;39159;45.634;9.420;2023-12-29T06:08:50;39.00;;;24.40;;
53269;SDS011;39159;45.634;9.420;2023-12-29T06:11:16;39.65;;;24.58;;
53269;SDS011;39159;45.634;9.420;2023-12-29T06:13:42;36.08;;;23.45;;
53269;SDS011;39159;45.634;9.420;2023-12-29T06:16:07;37.47;;;25.13;;
53269;SDS011;39159;45.634;9.420;2023-12-29T06:18:33;36.95;;;24.20;;
53269;SDS011;39159;45.634;9.420;2023-12-29T06:20:58;33.63;;;21.83;;
53269;SDS011;39159;45.634;9.420;2023-12-29T06:23:24;37.70;;;23.73;;
53269;SDS011;39159;45.634;9.420;2023-12-29T06:25:50;32.10;;;22.27;;
53269;SDS011;39159;45.634;9.420;2023-12-29T06:28:16;41.25;;;25.17;;
53269;SDS011;39159;45.634;9.420;2023-12-29T06:30:41;34.90;;;22.58;;
53269;SDS011;39159;45.634;9.420;2023-12-29T06:33:07;36.03;;;22.15;;
53269;SDS011;39159;45.634;9.420;2023-12-29T06:35:32;35.90;;;23.33;;
53269;SDS011;39159;45.634;9.420;2023-12-29T06:37:58;33.63;;;23.35;;
53269;SDS011;39159;45.634;9.420;2023-12-29T06:40:24;36.35;;;23.52;;
53269;SDS011;39159;45.634;9.420;2023-12-29T06:42:49;36.25;;;23.50;;
53269;SDS011;39159;45.634;9.420;2023-12-29T06:45:15;42.15;;;25.48;;
53269;SDS011;39159;45.634;9.420;2023-12-29T06:47:40;39.33;;;26.05;;
53269;SDS011;39159;45.634;9.420;2023-12-29T06:50:05;40.22;;;26.67;;
53269;SDS011;39159;45.634;9.420;2023-12-29T06:52:32;39.35;;;25.15;;
53269;SDS011;39159;45.634;9.420;2023-12-29T06:55:02;39.05;;;25.20;;
53269;SDS011;39159;45.634;9.420;2023-12-29T06:57:27;36.78;;;25.20;;
53269;SDS011;39159;45.634;9.420;2023-12-29T06:59:53;38.65;;;25.73;;
53269;SDS011;39159;45.634;9.420;2023-12-29T07:02:18;41.00;;;25.35;;
53269;SDS011;39159;45.634;9.420;2023-12-29T07:04:44;36.53;;;23.52;;
53269;SDS011;39159;45.634;9.420;2023-12-29T07:07:09;38.33;;;23.75;;
53269;SDS011;39159;45.634;9.420;2023-12-29T07:09:37;39.35;;;24.67;;
53269;SDS011;39159;45.634;9.420;2023-12-29T07:12:03;41.03;;;24.13;;
53269;SDS011;39159;45.634;9.420;2023-12-29T07:14:29;35.38;;;23.83;;
53269;SDS011;39159;45.634;9.420;2023-12-29T07:16:54;38.45;;;23.33;;
53269;SDS011;39159;45.634;9.420;2023-12-29T07:19:19;35.70;;;22.13;;
53269;SDS011;39159;45.634;9.420;2023-12-29T07:21:45;38.67;;;23.38;;
53269;SDS011;39159;45.634;9.420;2023-12-29T07:24:11;38.70;;;23.30;;
53269;SDS011;39159;45.634;9.420;2023-12-29T07:26:36;37.88;;;24.02;;
53269;SDS011;39159;45.634;9.420;2023-12-29T07:29:01;38.50;;;24.55;;
53269;SDS011;39159;45.634;9.420;2023-12-29T07:31:27;40.17;;;25.85;;
53269;SDS011;39159;45.634;9.420;2023-12-29T07:33:52;39.58;;;25.40;;
53269;SDS011;39159;45.634;9.420;2023-12-29T07:36:18;35.72;;;21.92;;
53269;SDS011;39159;45.634;9.420;2023-12-29T07:38:43;32.53;;;21.65;;
53269;SDS011;39159;45.634;9.420;2023-12-29T07:41:08;38.78;;;23.73;;
53269;SDS011;39159;45.634;9.420;2023-12-29T07:43:34;38.17;;;23.45;;
53269;SDS011;39159;45.634;9.420;2023-12-29T07:46:01;35.72;;;22.15;;
53269;SDS011;39159;45.634;9.420;2023-12-29T07:48:27;38.00;;;24.73;;
53269;SDS011;39159;45.634;9.420;2023-12-29T07:50:52;38.65;;;24.50;;
53269;SDS011;39159;45.634;9.420;2023-12-29T07:53:17;37.20;;;23.77;;
53269;SDS011;39159;45.634;9.420;2023-12-29T07:55:43;37.08;;;24.73;;
53269;SDS011;39159;45.634;9.420;2023-12-29T07:58:11;34.75;;;21.58;;
53269;SDS011;39159;45.634;9.420;2023-12-29T08:00:36;39.67;;;24.65;;
53269;SDS011;39159;45.634;9.420;2023-12-29T08:03:02;31.30;;;21.17;;
53269;SDS011;39159;45.634;9.420;2023-12-29T08:05:28;37.90;;;23.33;;
53269;SDS011;39159;45.634;9.420;2023-12-29T08:07:54;41.28;;;23.10;;
53269;SDS011;39159;45.634;9.420;2023-12-29T08:10:19;37.00;;;24.15;;
53269;SDS011;39159;45.634;9.420;2023-12-29T08:12:45;45.00;;;25.58;;
53269;SDS011;39159;45.634;9.420;2023-12-29T08:15:10;41.55;;;25.50;;
53269;SDS011;39159;45.634;9.420;2023-12-29T08:17:36;42.28;;;26.00;;
53269;SDS011;39159;45.634;9.420;2023-12-29T08:20:03;33.05;;;22.33;;
53269;SDS011;39159;45.634;9.420;2023-12-29T08:22:31;44.53;;;26.05;;
53269;SDS011;39159;45.634;9.420;2023-12-29T08:24:57;39.30;;;24.02;;
53269;SDS011;39159;45.634;9.420;2023-12-29T08:27:23;36.13;;;23.98;;
53269;SDS011;39159;45.634;9.420;2023-12-29T08:29:50;39.63;;;24.38;;
53269;SDS011;39159;45.634;9.420;2023-12-29T08:32:16;42.10;;;25.33;;
53269;SDS011;39159;45.634;9.420;2023-12-29T08:34:41;40.97;;;24.35;;
53269;SDS011;39159;45.634;9.420;2023-12-29T08:37:07;40.03;;;25.10;;
53269;SDS011;39159;45.634;9.420;2023-12-29T08:39:32;40.83;;;25.45;;
53269;SDS011;39159;45.634;9.420;2023-12-29T08:41:57;40.13;;;25.65;;
53269;SDS011;39159;45.634;9.420;2023-12-29T08:44:23;39.45;;;25.77;;
53269;SDS011;39159;45.634;9.420;2023-12-29T08:46:49;37.90;;;25.38;;
53269;SDS011;39159;45.634;9.420;2023-12-29T08:49:15;37.38;;;23.38;;
53269;SDS011;39159;45.634;9.420;2023-12-29T08:51:40;31.80;;;19.88;;
53269;SDS011;39159;45.634;9.420;2023-12-29T08:54:06;31.40;;;18.48;;
53269;SDS011;39159;45.634;9.420;2023-12-29T08:56:32;26.80;;;17.48;;
53269;SDS011;39159;45.634;9.420;2023-12-29T08:58:57;27.38;;;16.45;;
53269;SDS011;39159;45.634;9.420;2023-12-29T09:01:22;39.95;;;24.05;;
53269;SDS011;39159;45.634;9.420;2023-12-29T09:03:48;35.00;;;19.85;;
53269;SDS011;39159;45.634;9.420;2023-12-29T09:06:13;28.38;;;18.73;;
53269;SDS011;39159;45.634;9.420;2023-12-29T09:08:39;29.00;;;18.42;;
53269;SDS011;39159;45.634;9.420;2023-12-29T09:11:05;30.83;;;19.75;;
53269;SDS011;39159;45.634;9.420;2023-12-29T09:13:30;38.25;;;20.88;;
53269;SDS011;39159;45.634;9.420;2023-12-29T09:15:57;40.63;;;22.38;;
53269;SDS011;39159;45.634;9.420;2023-12-29T09:18:23;38.33;;;22.83;;
53269;SDS011;39159;45.634;9.420;2023-12-29T09:20:49;35.10;;;22.48;;
53269;SDS011;39159;45.634;9.420;2023-12-29T09:23:14;33.85;;;23.13;;
53269;SDS011;39159;45.634;9.420;2023-12-29T09:25:40;35.25;;;22.67;;
53269;SDS011;39159;45.634;9.420;2023-12-29T09:28:05;32.45;;;21.98;;
53269;SDS011;39159;45.634;9.420;2023-12-29T09:30:31;40.15;;;23.38;;
53269;SDS011;39159;45.634;9.420;2023-12-29T09:32:56;34.20;;;23.67;;
53269;SDS011;39159;45.634;9.420;2023-12-29T09:35:22;39.10;;;24.77;;
53269;SDS011;39159;45.634;9.420;2023-12-29T09:37:47;42.28;;;26.00;;
53269;SDS011;39159;45.634;9.420;2023-12-29T09:40:16;42.22;;;27.00;;
53269;SDS011;39159;45.634;9.420;2023-12-29T09:42:42;43.97;;;27.17;;
53269;SDS011;39159;45.634;9.420;2023-12-29T09:45:10;43.00;;;26.23;;
53269;SDS011;39159;45.634;9.420;2023-12-29T09:47:40;37.55;;;24.52;;
53269;SDS011;39159;45.634;9.420;2023-12-29T09:50:12;38.13;;;24.27;;
53269;SDS011;39159;45.634;9.420;2023-12-29T09:52:38;35.20;;;23.77;;
53269;SDS011;39159;45.634;9.420;2023-12-29T09:55:05;38.47;;;24.50;;
53269;SDS011;39159;45.634;9.420;2023-12-29T09:57:35;37.22;;;24.10;;
53269;SDS011;39159;45.634;9.420;2023-12-29T10:00:04;35.50;;;24.10;;
53269;SDS011;39159;45.634;9.420;2023-12-29T10:02:30;38.53;;;24.40;;
53269;SDS011;39159;45.634;9.420;2023-12-29T10:04:56;36.45;;;23.95;;
53269;SDS011;39159;45.634;9.420;2023-12-29T10:07:25;37.80;;;24.30;;
53269;SDS011;39159;45.634;9.420;2023-12-29T10:09:55;36.45;;;22.98;;
53269;SDS011;39159;45.634;9.420;2023-12-29T10:12:23;34.78;;;24.70;;
53269;SDS011;39159;45.634;9.420;2023-12-29T10:15:06;36.78;;;23.90;;
53269;SDS011;39159;45.634;9.420;2023-12-29T10:17:45;33.85;;;22.38;;
53269;SDS011;39159;45.634;9.420;2023-12-29T10:20:34;35.75;;;24.30;;
53269;SDS011;39159;45.634;9.420;2023-12-29T10:23:19;35.97;;;25.27;;
53269;SDS011;39159;45.634;9.420;2023-12-29T10:25:48;36.53;;;24.98;;
53269;SDS011;39159;45.634;9.420;2023-12-29T10:28:14;34.40;;;21.73;;
53269;SDS011;39159;45.634;9.420;2023-12-29T10:30:41;40.00;;;23.63;;
53269;SDS011;39159;45.634;9.420;2023-12-29T10:33:06;43.83;;;24.27;;
53269;SDS011;39159;45.634;9.420;2023-12-29T10:35:32;36.75;;;25.10;;
53269;SDS011;39159;45.634;9.420;2023-12-29T10:38:07;39.40;;;25.65;;
53269;SDS011;39159;45.634;9.420;2023-12-29T10:40:35;41.30;;;26.40;;
53269;SDS011;39159;45.634;9.420;2023-12-29T10:43:00;35.58;;;24.35;;
53269;SDS011;39159;45.634;9.420;2023-12-29T10:45:31;34.95;;;23.00;;
53269;SDS011;39159;45.634;9.420;2023-12-29T10:47:57;38.47;;;25.92;;
53269;SDS011;39159;45.634;9.420;2023-12-29T10:50:25;41.65;;;26.48;;
53269;SDS011;39159;45.634;9.420;2023-12-29T10:52:50;40.00;;;26.27;;
53269;SDS011;39159;45.634;9.420;2023-12-29T10:55:15;40.88;;;25.95;;
53269;SDS011;39159;45.634;9.420;2023-12-29T10:57:41;42.80;;;26.88;;
53269;SDS011;39159;45.634;9.420;2023-12-29T11:00:07;49.28;;;28.75;;
53269;SDS011;39159;45.634;9.420;2023-12-29T11:02:33;43.25;;;27.73;;
53269;SDS011;39159;45.634;9.420;2023-12-29T11:07:46;39.03;;;24.42;;
53269;SDS011;39159;45.634;9.420;2023-12-29T11:10:12;38.40;;;25.80;;
53269;SDS011;39159;45.634;9.420;2023-12-29T11:12:38;35.08;;;23.65;;
53269;SDS011;39159;45.634;9.420;2023-12-29T11:15:05;37.33;;;23.90;;
53269;SDS011;39159;45.634;9.420;2023-12-29T11:17:32;32.97;;;23.52;;
53269;SDS011;39159;45.634;9.420;2023-12-29T11:19:59;33.17;;;22.83;;
53269;SDS011;39159;45.634;9.420;2023-12-29T11:22:27;35.30;;;23.13;;
53269;SDS011;39159;45.634;9.420;2023-12-29T11:24:54;41.03;;;25.45;;
53269;SDS011;39159;45.634;9.420;2023-12-29T11:27:19;42.67;;;24.75;;
53269;SDS011;39159;45.634;9.420;2023-12-29T11:29:47;35.22;;;24.42;;
53269;SDS011;39159;45.634;9.420;2023-12-29T11:32:15;38.70;;;24.95;;
53269;SDS011;39159;45.634;9.420;2023-12-29T11:34:52;34.90;;;24.02;;
53269;SDS011;39159;45.634;9.420;2023-12-29T11:37:26;37.83;;;24.23;;
53269;SDS011;39159;45.634;9.420;2023-12-29T11:40:19;31.75;;;22.73;;
53269;SDS011;39159;45.634;9.420;2023-12-29T11:42:45;30.77;;;22.38;;
53269;SDS011;39159;45.634;9.420;2023-12-29T11:45:24;36.53;;;22.15;;
53269;SDS011;39159;45.634;9.420;2023-12-29T11:48:05;35.00;;;23.52;;
53269;SDS011;39159;45.634;9.420;2023-12-29T11:50:35;40.70;;;24.77;;
53269;SDS011;39159;45.634;9.420;2023-12-29T11:53:07;34.63;;;23.83;;
53269;SDS011;39159;45.634;9.420;2023-12-29T11:55:36;32.80;;;22.30;;
53269;SDS011;39159;45.634;9.420;2023-12-29T11:58:03;40.20;;;26.38;;
53269;SDS011;39159;45.634;9.420;2023-12-29T12:03:14;37.58;;;24.25;;
53269;SDS011;39159;45.634;9.420;2023-12-29T12:05:47;31.55;;;22.63;;
53269;SDS011;39159;45.634;9.420;2023-12-29T12:10:54;35.25;;;23.05;;
53269;SDS011;39159;45.634;9.420;2023-12-29T12:16:07;36.95;;;24.77;;
53269;SDS011;39159;45.634;9.420;2023-12-29T12:18:33;40.30;;;24.58;;
53269;SDS011;39159;45.634;9.420;2023-12-29T12:20:59;37.08;;;25.40;;
53269;SDS011;39159;45.634;9.420;2023-12-29T12:23:25;34.88;;;22.38;;
53269;SDS011;39159;45.634;9.420;2023-12-29T12:25:57;43.67;;;24.73;;
53269;SDS011;39159;45.634;9.420;2023-12-29T12:28:24;36.50;;;23.08;;
53269;SDS011;39159;45.634;9.420;2023-12-29T12:30:50;34.20;;;23.58;;
53269;SDS011;39159;45.634;9.420;2023-12-29T12:33:15;39.05;;;26.08;;
53269;SDS011;39159;45.634;9.420;2023-12-29T12:35:41;151.93;;;66.22;;
53269;SDS011;39159;45.634;9.420;2023-12-29T12:38:16;164.50;;;69.00;;
53269;SDS011;39159;45.634;9.420;2023-12-29T12:40:49;146.38;;;61.75;;
53269;SDS011;39159;45.634;9.420;2023-12-29T12:43:15;115.50;;;52.67;;
53269;SDS011;39159;45.634;9.420;2023-12-29T12:46:02;66.07;;;34.72;;
53269;SDS011;39159;45.634;9.420;2023-12-29T12:48:35;48.85;;;28.55;;
53269;SDS011;39159;45.634;9.420;2023-12-29T12:51:08;45.72;;;26.83;;
53269;SDS011;39159;45.634;9.420;2023-12-29T12:53:34;42.45;;;27.35;;
53269;SDS011;39159;45.634;9.420;2023-12-29T12:56:05;38.97;;;26.85;;
53269;SDS011;39159;45.634;9.420;2023-12-29T12:58:31;43.40;;;28.58;;
53269;SDS011;39159;45.634;9.420;2023-12-29T13:00:57;39.00;;;27.40;;
53269;SDS011;39159;45.634;9.420;2023-12-29T13:03:24;41.63;;;27.08;;
53269;SDS011;39159;45.634;9.420;2023-12-29T13:05:49;40.67;;;27.27;;
53269;SDS011;39159;45.634;9.420;2023-12-29T13:08:15;38.38;;;25.55;;
53269;SDS011;39159;45.634;9.420;2023-12-29T13:10:42;40.70;;;24.80;;
53269;SDS011;39159;45.634;9.420;2023-12-29T13:13:08;44.03;;;27.63;;
53269;SDS011;39159;45.634;9.420;2023-12-29T13:15:46;41.08;;;26.60;;
53269;SDS011;39159;45.634;9.420;2023-12-29T13:18:12;38.55;;;26.27;;
53269;SDS011;39159;45.634;9.420;2023-12-29T13:20:47;37.58;;;26.25;;
53269;SDS011;39159;45.634;9.420;2023-12-29T13:23:14;43.50;;;26.80;;
53269;SDS011;39159;45.634;9.420;2023-12-29T13:25:40;43.28;;;26.85;;
53269;SDS011;39159;45.634;9.420;2023-12-29T13:28:08;41.13;;;27.50;;
53269;SDS011;39159;45.634;9.420;2023-12-29T13:30:34;37.03;;;24.48;;
53269;SDS011;39159;45.634;9.420;2023-12-29T13:33:08;40.33;;;26.95;;
53269;SDS011;39159;45.634;9.420;2023-12-29T13:35:39;38.13;;;26.98;;
53269;SDS011;39159;45.634;9.420;2023-12-29T13:38:18;35.60;;;23.88;;
53269;SDS011;39159;45.634;9.420;2023-12-29T13:40:56;40.15;;;26.23;;
53269;SDS011;39159;45.634;9.420;2023-12-29T13:43:25;44.05;;;27.80;;
53269;SDS011;39159;45.634;9.420;2023-12-29T13:45:55;46.25;;;28.00;;
53269;SDS011;39159;45.634;9.420;2023-12-29T13:48:21;42.42;;;28.33;;
53269;SDS011;39159;45.634;9.420;2023-12-29T13:50:48;45.63;;;28.67;;
53269;SDS011;39159;45.634;9.420;2023-12-29T13:53:20;40.63;;;27.80;;
53269;SDS011;39159;45.634;9.420;2023-12-29T13:55:46;36.78;;;26.70;;
53269;SDS011;39159;45.634;9.420;2023-12-29T13:58:12;38.58;;;25.67;;
53269;SDS011;39159;45.634;9.420;2023-12-29T14:00:41;36.58;;;25.10;;
53269;SDS011;39159;45.634;9.420;2023-12-29T14:03:27;46.83;;;29.33;;
53269;SDS011;39159;45.634;9.420;2023-12-29T14:06:03;40.40;;;29.33;;
53269;SDS011;39159;45.634;9.420;2023-12-29T14:08:32;41.17;;;28.67;;
53269;SDS011;39159;45.634;9.420;2023-12-29T14:11:07;46.58;;;28.08;;
53269;SDS011;39159;45.634;9.420;2023-12-29T14:13:34;41.55;;;27.55;;
53269;SDS011;39159;45.634;9.420;2023-12-29T14:15:59;42.13;;;28.80;;
53269;SDS011;39159;45.634;9.420;2023-12-29T14:20:57;45.55;;;30.75;;
53269;SDS011;39159;45.634;9.420;2023-12-29T14:23:22;45.05;;;28.55;;
53269;SDS011;39159;45.634;9.420;2023-12-29T14:25:48;40.75;;;27.38;;
53269;SDS011;39159;45.634;9.420;2023-12-29T14:28:20;35.33;;;25.45;;
53269;SDS011;39159;45.634;9.420;2023-12-29T14:30:48;47.13;;;28.65;;
53269;SDS011;39159;45.634;9.420;2023-12-29T14:33:14;41.30;;;28.95;;
53269;SDS011;39159;45.634;9.420;2023-12-29T14:35:39;40.17;;;26.92;;
53269;SDS011;39159;45.634;9.420;2023-12-29T14:38:06;45.28;;;29.88;;
53269;SDS011;39159;45.634;9.420;2023-12-29T14:40:31;44.38;;;28.63;;